sensor_id;sensor_type;location;lat;lon;timestamp;pressure;altitude;pressure_sealevel;temperature;humidity
69667;BME280;66534;52.370;4.832;2023-01-30T00:00:08;101693.66;;;7.41;100.00
69667;BME280;66534;52.370;4.832;2023-01-30T00:00:39;101679.84;;;7.34;100.00
69667;BME280;66534;52.370;4.832;2023-01-30T00:01:16;101681.72;;;7.28;100.00
69667;BME280;66534;52.370;4.832;2023-01-30T00:01:48;101678.16;;;7.32;100.00
69667;BME280;66534;52.370;4.832;2023-01-30T00:02:19;101683.28;;;7.36;100.00
69667;BME280;66534;52.370;4.832;2023-01-30T00:02:49;101676.28;;;7.40;100.00
69667;BME280;66534;52.370;4.832;2023-01-30T00:03:20;101671.91;;;7.40;100.00
69667;BME280;66534;52.370;4.832;2023-01-30T00:03:51;101682.34;;;7.40;100.00
69667;BME280;66534;52.370;4.832;2023-01-30T00:04:21;101690.09;;;7.43;100.00
69667;BME280;66534;52.370;4.832;2023-01-30T00:04:52;101683.34;;;7.33;100.00
69667;BME280;66534;52.370;4.832;2023-01-30T00:05:22;101678.13;;;7.33;100.00
69667;BME280;66534;52.370;4.832;2023-01-30T00:05:53;101686.78;;;7.35;100.00
69667;BME280;66534;52.370;4.832;2023-01-30T00:06:23;101679.84;;;7.34;100.00
69667;BME280;66534;52.370;4.832;2023-01-30T00:06:54;101691.25;;;7.29;100.00
69667;BME280;66534;52.370;4.832;2023-01-30T00:07:24;101682.44;;;7.34;100.00
69667;BME280;66534;52.370;4.832;2023-01-30T00:07:55;101684.16;;;7.37;100.00
69667;BME280;66534;52.370;4.832;2023-01-30T00:08:25;101686.78;;;7.35;100.00
69667;BME280;66534;52.370;4.832;2023-01-30T00:08:56;101679.69;;;7.42;100.00
69667;BME280;66534;52.370;4.832;2023-01-30T00:09:26;101670.06;;;7.44;100.00
69667;BME280;66534;52.370;4.832;2023-01-30T00:09:56;101676.19;;;7.44;100.00
69667;BME280;66534;52.370;4.832;2023-01-30T00:10:27;101670.16;;;7.41;100.00
69667;BME280;66534;52.370;4.832;2023-01-30T00:11:02;101685.75;;;7.44;100.00
69667;BME280;66534;52.370;4.832;2023-01-30T00:11:34;101682.25;;;7.45;100.00
69667;BME280;66534;52.370;4.832;2023-01-30T00:12:04;101687.50;;;7.45;100.00
69667;BME280;66534;52.370;4.832;2023-01-30T00:12:35;101678.81;;;7.44;100.00
69667;BME280;66534;52.370;4.832;2023-01-30T00:13:05;101678.88;;;7.40;100.00
69667;BME280;66534;52.370;4.832;2023-01-30T00:13:36;101684.06;;;7.41;100.00
69667;BME280;66534;52.370;4.832;2023-01-30T00:14:08;101674.44;;;7.43;100.00
69667;BME280;66534;52.370;4.832;2023-01-30T00:14:38;101689.31;;;7.40;100.00
69667;BME280;66534;52.370;4.832;2023-01-30T00:15:08;101675.38;;;7.39;100.00
69667;BME280;66534;52.370;4.832;2023-01-30T00:15:39;101661.56;;;7.34;100.00
69667;BME280;66534;52.370;4.832;2023-01-30T00:16:11;101659.81;;;7.36;100.00
69667;BME280;66534;52.370;4.832;2023-01-30T00:16:43;101660.72;;;7.34;100.00
69667;BME280;66534;52.370;4.832;2023-01-30T00:17:13;101663.38;;;7.31;100.00
69667;BME280;66534;52.370;4.832;2023-01-30T00:17:44;101667.63;;;7.36;100.00
69667;BME280;66534;52.370;4.832;2023-01-30T00:18:14;101660.66;;;7.37;100.00
69667;BME280;66534;52.370;4.832;2023-01-30T00:18:45;101657.28;;;7.32;100.00
69667;BME280;66534;52.370;4.832;2023-01-30T00:19:15;101660.78;;;7.29;100.00
69667;BME280;66534;52.370;4.832;2023-01-30T00:19:46;101652.09;;;7.27;100.00
69667;BME280;66534;52.370;4.832;2023-01-30T00:20:16;101660.84;;;7.28;100.00
69667;BME280;66534;52.370;4.832;2023-01-30T00:20:47;101657.28;;;7.32;100.00
69667;BME280;66534;52.370;4.832;2023-01-30T00:21:17;101652.97;;;7.29;100.00
69667;BME280;66534;52.370;4.832;2023-01-30T00:21:48;101659.09;;;7.27;100.00
69667;BME280;66534;52.370;4.832;2023-01-30T00:22:18;101649.53;;;7.26;100.00
69667;BME280;66534;52.370;4.832;2023-01-30T00:22:49;101659.94;;;7.29;100.00
69667;BME280;66534;52.370;4.832;2023-01-30T00:23:19;101645.13;;;7.29;100.00
69667;BME280;66534;52.370;4.832;2023-01-30T00:23:50;101655.53;;;7.32;100.00
69667;BME280;66534;52.370;4.832;2023-01-30T00:24:20;101655.53;;;7.32;100.00
69667;BME280;66534;52.370;4.832;2023-01-30T00:24:50;101660.75;;;7.31;100.00
69667;BME280;66534;52.370;4.832;2023-01-30T00:25:21;101648.56;;;7.33;100.00
69667;BME280;66534;52.370;4.832;2023-01-30T00:25:51;101644.06;;;7.39;100.00
69667;BME280;66534;52.370;4.832;2023-01-30T00:26:22;101650.09;;;7.44;100.00
69667;BME280;66534;52.370;4.832;2023-01-30T00:26:52;101654.28;;;7.52;100.00
69667;BME280;66534;52.370;4.832;2023-01-30T00:27:22;101647.56;;;7.38;100.00
69667;BME280;66534;52.370;4.832;2023-01-30T00:27:53;101640.59;;;7.39;100.00
69667;BME280;66534;52.370;4.832;2023-01-30T00:28:24;101643.09;;;7.45;100.00
69667;BME280;66534;52.370;4.832;2023-01-30T00:28:55;101654.38;;;7.47;100.00
69667;BME280;66534;52.370;4.832;2023-01-30T00:29:25;101653.50;;;7.46;100.00
69667;BME280;66534;52.370;4.832;2023-01-30T00:29:55;101649.31;;;7.38;100.00
69667;BME280;66534;52.370;4.832;2023-01-30T00:30:26;101638.94;;;7.35;100.00
69667;BME280;66534;52.370;4.832;2023-01-30T00:30:56;101650.22;;;7.35;100.00
69667;BME280;66534;52.370;4.832;2023-01-30T00:31:27;101641.41;;;7.42;100.00
69667;BME280;66534;52.370;4.832;2023-01-30T00:31:57;101648.28;;;7.46;100.00
69667;BME280;66534;52.370;4.832;2023-01-30T00:32:28;101638.66;;;7.50;100.00
69667;BME280;66534;52.370;4.832;2023-01-30T00:32:58;101653.50;;;7.46;100.00
69667;BME280;66534;52.370;4.832;2023-01-30T00:33:29;101652.66;;;7.46;100.00
69667;BME280;66534;52.370;4.832;2023-01-30T00:33:59;101646.56;;;7.45;100.00
69667;BME280;66534;52.370;4.832;2023-01-30T00:34:29;101643.16;;;7.42;100.00
69667;BME280;66534;52.370;4.832;2023-01-30T00:35:00;101635.19;;;7.48;100.00
69667;BME280;66534;52.370;4.832;2023-01-30T00:35:30;101644.69;;;7.54;100.00
69667;BME280;66534;52.370;4.832;2023-01-30T00:36:01;101640.34;;;7.53;100.00
69667;BME280;66534;52.370;4.832;2023-01-30T00:36:32;101642.13;;;7.51;100.00
69667;BME280;66534;52.370;4.832;2023-01-30T00:37:02;101642.03;;;7.55;100.00
69667;BME280;66534;52.370;4.832;2023-01-30T00:37:33;101639.41;;;7.55;100.00
69667;BME280;66534;52.370;4.832;2023-01-30T00:38:03;101629.03;;;7.54;100.00
69667;BME280;66534;52.370;4.832;2023-01-30T00:38:34;101640.28;;;7.57;100.00
69667;BME280;66534;52.370;4.832;2023-01-30T00:39:04;101634.25;;;7.52;100.00
69667;BME280;66534;52.370;4.832;2023-01-30T00:39:35;101634.25;;;7.54;100.00
69667;BME280;66534;52.370;4.832;2023-01-30T00:40:05;101637.72;;;7.54;100.00
69667;BME280;66534;52.370;4.832;2023-01-30T00:40:36;101630.00;;;7.46;100.00
69667;BME280;66534;52.370;4.832;2023-01-30T00:41:06;101641.31;;;7.48;100.00
69667;BME280;66534;52.370;4.832;2023-01-30T00:41:37;101634.28;;;7.51;100.00
69667;BME280;66534;52.370;4.832;2023-01-30T00:42:26;101628.16;;;7.53;100.00
69667;BME280;66534;52.370;4.832;2023-01-30T00:43:18;101623.91;;;7.47;100.00
69667;BME280;66534;52.370;4.832;2023-01-30T00:44:08;101618.56;;;7.54;100.00
69667;BME280;66534;52.370;4.832;2023-01-30T00:44:57;101616.88;;;7.51;100.00
69667;BME280;66534;52.370;4.832;2023-01-30T00:45:46;101617.69;;;7.55;100.00
69667;BME280;66534;52.370;4.832;2023-01-30T00:46:36;101618.63;;;7.51;100.00
69667;BME280;66534;52.370;4.832;2023-01-30T00:47:25;101619.53;;;7.49;100.00
69667;BME280;66534;52.370;4.832;2023-01-30T00:47:56;101616.16;;;7.44;100.00
69667;BME280;66534;52.370;4.832;2023-01-30T00:48:28;101615.25;;;7.45;100.00
69667;BME280;66534;52.370;4.832;2023-01-30T00:48:59;101611.66;;;7.51;100.00
69667;BME280;66534;52.370;4.832;2023-01-30T00:49:29;101606.56;;;7.45;100.00
69667;BME280;66534;52.370;4.832;2023-01-30T00:50:00;101605.75;;;7.41;100.00
69667;BME280;66534;52.370;4.832;2023-01-30T00:50:30;101600.56;;;7.40;100.00
69667;BME280;66534;52.370;4.832;2023-01-30T00:51:11;101602.28;;;7.39;100.00
69667;BME280;66534;52.370;4.832;2023-01-30T00:51:41;101600.56;;;7.40;100.00
69667;BME280;66534;52.370;4.832;2023-01-30T00:52:12;101603.19;;;7.40;100.00
69667;BME280;66534;52.370;4.832;2023-01-30T00:52:42;101597.06;;;7.41;100.00
69667;BME280;66534;52.370;4.832;2023-01-30T00:53:13;101601.34;;;7.45;100.00
69667;BME280;66534;52.370;4.832;2023-01-30T00:53:45;101596.31;;;7.36;100.00
69667;BME280;66534;52.370;4.832;2023-01-30T00:54:15;101595.50;;;7.32;100.00
69667;BME280;66534;52.370;4.832;2023-01-30T00:54:46;101597.22;;;7.33;100.00
69667;BME280;66534;52.370;4.832;2023-01-30T00:55:16;101589.34;;;7.35;100.00
69667;BME280;66534;52.370;4.832;2023-01-30T00:55:47;101591.94;;;7.35;100.00
69667;BME280;66534;52.370;4.832;2023-01-30T00:56:20;101598.91;;;7.34;100.00
69667;BME280;66534;52.370;4.832;2023-01-30T00:56:50;101595.47;;;7.34;100.00
69667;BME280;66534;52.370;4.832;2023-01-30T00:57:21;101592.81;;;7.35;100.00
69667;BME280;66534;52.370;4.832;2023-01-30T00:57:51;101595.38;;;7.38;100.00
69667;BME280;66534;52.370;4.832;2023-01-30T00:58:22;101589.19;;;7.42;100.00
69667;BME280;66534;52.370;4.832;2023-01-30T00:58:53;101585.81;;;7.37;100.00
69667;BME280;66534;52.370;4.832;2023-01-30T00:59:23;101590.19;;;7.35;100.00
69667;BME280;66534;52.370;4.832;2023-01-30T00:59:54;101593.75;;;7.33;100.00
69667;BME280;66534;52.370;4.832;2023-01-30T01:00:25;101585.97;;;7.30;100.00
69667;BME280;66534;52.370;4.832;2023-01-30T01:00:55;101592.81;;;7.35;100.00
69667;BME280;66534;52.370;4.832;2023-01-30T01:01:26;101588.47;;;7.36;100.00
69667;BME280;66534;52.370;4.832;2023-01-30T01:01:56;101584.97;;;7.37;100.00
69667;BME280;66534;52.370;4.832;2023-01-30T01:02:27;101588.47;;;7.34;100.00
69667;BME280;66534;52.370;4.832;2023-01-30T01:02:57;101586.72;;;7.35;100.00
69667;BME280;66534;52.370;4.832;2023-01-30T01:03:28;101588.47;;;7.34;100.00
69667;BME280;66534;52.370;4.832;2023-01-30T01:03:58;101583.25;;;7.34;100.00
69667;BME280;66534;52.370;4.832;2023-01-30T01:04:28;101584.03;;;7.39;100.00
69667;BME280;66534;52.370;4.832;2023-01-30T01:05:00;101587.53;;;7.38;100.00
69667;BME280;66534;52.370;4.832;2023-01-30T01:05:31;101584.97;;;7.35;100.00
69667;BME280;66534;52.370;4.832;2023-01-30T01:06:01;101580.56;;;7.39;100.00
69667;BME280;66534;52.370;4.832;2023-01-30T01:06:31;101584.19;;;7.32;100.00
69667;BME280;66534;52.370;4.832;2023-01-30T01:07:02;101586.81;;;7.30;100.00
69667;BME280;66534;52.370;4.832;2023-01-30T01:07:32;101584.97;;;7.37;100.00
69667;BME280;66534;52.370;4.832;2023-01-30T01:08:03;101578.09;;;7.33;100.00
69667;BME280;66534;52.370;4.832;2023-01-30T01:08:34;101580.66;;;7.36;100.00
69667;BME280;66534;52.370;4.832;2023-01-30T01:09:04;101587.56;;;7.37;100.00
69667;BME280;66534;52.370;4.832;2023-01-30T01:09:35;101570.34;;;7.28;100.00
69667;BME280;66534;52.370;4.832;2023-01-30T01:10:06;101570.44;;;7.23;100.00
69667;BME280;66534;52.370;4.832;2023-01-30T01:10:37;101579.09;;;7.26;100.00
69667;BME280;66534;52.370;4.832;2023-01-30T01:11:08;101582.47;;;7.31;100.00
69667;BME280;66534;52.370;4.832;2023-01-30T01:11:38;101576.38;;;7.32;100.00
69667;BME280;66534;52.370;4.832;2023-01-30T01:12:08;101569.41;;;7.31;100.00
69667;BME280;66534;52.370;4.832;2023-01-30T01:12:39;101580.69;;;7.33;100.00
69667;BME280;66534;52.370;4.832;2023-01-30T01:13:09;101576.28;;;7.35;100.00
69667;BME280;66534;52.370;4.832;2023-01-30T01:13:40;101586.72;;;7.36;100.00
69667;BME280;66534;52.370;4.832;2023-01-30T01:14:10;101576.38;;;7.32;100.00
69667;BME280;66534;52.370;4.832;2023-01-30T01:14:41;101586.78;;;7.33;100.00
69667;BME280;66534;52.370;4.832;2023-01-30T01:15:11;101566.94;;;7.23;100.00
69667;BME280;66534;52.370;4.832;2023-01-30T01:15:42;101573.03;;;7.23;100.00
69667;BME280;66534;52.370;4.832;2023-01-30T01:16:12;101573.06;;;7.22;100.00
69667;BME280;66534;52.370;4.832;2023-01-30T01:16:43;101574.75;;;7.23;100.00
69667;BME280;66534;52.370;4.832;2023-01-30T01:17:13;101569.56;;;7.23;100.00
69667;BME280;66534;52.370;4.832;2023-01-30T01:17:44;101584.34;;;7.24;100.00
69667;BME280;66534;52.370;4.832;2023-01-30T01:18:14;101566.16;;;7.18;100.00
69667;BME280;66534;52.370;4.832;2023-01-30T01:18:45;101567.03;;;7.18;100.00
69667;BME280;66534;52.370;4.832;2023-01-30T01:19:15;101572.19;;;7.21;100.00
69667;BME280;66534;52.370;4.832;2023-01-30T01:19:46;101560.00;;;7.23;100.00
69667;BME280;66534;52.370;4.832;2023-01-30T01:20:16;101568.66;;;7.26;100.00
69667;BME280;66534;52.370;4.832;2023-01-30T01:20:48;101573.91;;;7.24;100.00
69667;BME280;66534;52.370;4.832;2023-01-30T01:21:19;101581.66;;;7.27;100.00
69667;BME280;66534;52.370;4.832;2023-01-30T01:21:50;101583.50;;;7.23;100.00
69667;BME280;66534;52.370;4.832;2023-01-30T01:22:21;101570.47;;;7.20;100.00
69667;BME280;66534;52.370;4.832;2023-01-30T01:22:52;101575.72;;;7.19;100.00
69667;BME280;66534;52.370;4.832;2023-01-30T01:23:26;101575.72;;;7.19;100.00
69667;BME280;66534;52.370;4.832;2023-01-30T01:23:57;101583.59;;;7.17;100.00
69667;BME280;66534;52.370;4.832;2023-01-30T01:24:29;101572.28;;;7.17;100.00
69667;BME280;66534;52.370;4.832;2023-01-30T01:24:59;101567.97;;;7.16;100.00
69667;BME280;66534;52.370;4.832;2023-01-30T01:25:30;101575.88;;;7.11;100.00
69667;BME280;66534;52.370;4.832;2023-01-30T01:26:01;101574.94;;;7.14;100.00
69667;BME280;66534;52.370;4.832;2023-01-30T01:26:32;101572.41;;;7.11;100.00
69667;BME280;66534;52.370;4.832;2023-01-30T01:27:02;101568.91;;;7.10;100.00
69667;BME280;66534;52.370;4.832;2023-01-30T01:27:32;101567.19;;;7.11;100.00
69667;BME280;66534;52.370;4.832;2023-01-30T01:28:03;101566.41;;;7.06;100.00
69667;BME280;66534;52.370;4.832;2023-01-30T01:28:33;101555.19;;;7.01;100.00
69667;BME280;66534;52.370;4.832;2023-01-30T01:29:04;101564.78;;;7.00;100.00
69667;BME280;66534;52.370;4.832;2023-01-30T01:29:34;101562.94;;;7.05;100.00
69667;BME280;66534;52.370;4.832;2023-01-30T01:30:05;101554.22;;;7.06;100.00
69667;BME280;66534;52.370;4.832;2023-01-30T01:30:36;101565.53;;;7.07;100.00
69667;BME280;66534;52.370;4.832;2023-01-30T01:31:08;101562.03;;;7.06;100.00
69667;BME280;66534;52.370;4.832;2023-01-30T01:31:42;101566.44;;;7.04;100.00
69667;BME280;66534;52.370;4.832;2023-01-30T01:32:13;101559.50;;;7.03;100.00
69667;BME280;66534;52.370;4.832;2023-01-30T01:32:43;101559.44;;;7.06;100.00
69667;BME280;66534;52.370;4.832;2023-01-30T01:33:14;101555.97;;;7.06;100.00
69667;BME280;66534;52.370;4.832;2023-01-30T01:33:44;101560.25;;;7.10;100.00
69667;BME280;66534;52.370;4.832;2023-01-30T01:34:15;101565.53;;;7.07;100.00
69667;BME280;66534;52.370;4.832;2023-01-30T01:34:45;101568.19;;;7.04;100.00
69667;BME280;66534;52.370;4.832;2023-01-30T01:35:17;101565.53;;;7.07;100.00
69667;BME280;66534;52.370;4.832;2023-01-30T01:35:48;101562.84;;;7.10;100.00
69667;BME280;66534;52.370;4.832;2023-01-30T01:36:19;101566.38;;;7.07;100.00
69667;BME280;66534;52.370;4.832;2023-01-30T01:36:49;101562.00;;;7.09;100.00
69667;BME280;66534;52.370;4.832;2023-01-30T01:37:20;101571.53;;;7.10;100.00
69667;BME280;66534;52.370;4.832;2023-01-30T01:37:53;101561.16;;;7.07;100.00
69667;BME280;66534;52.370;4.832;2023-01-30T01:38:24;101571.63;;;7.06;100.00
69667;BME280;66534;52.370;4.832;2023-01-30T01:38:55;101567.25;;;7.06;100.00
69667;BME280;66534;52.370;4.832;2023-01-30T01:39:25;101560.31;;;7.05;100.00
69667;BME280;66534;52.370;4.832;2023-01-30T01:40:17;101561.25;;;7.03;100.00
69667;BME280;66534;52.370;4.832;2023-01-30T01:41:07;101558.66;;;7.01;100.00
69667;BME280;66534;52.370;4.832;2023-01-30T01:41:39;101561.28;;;7.01;100.00
69667;BME280;66534;52.370;4.832;2023-01-30T01:42:09;101562.19;;;6.98;100.00
69667;BME280;66534;52.370;4.832;2023-01-30T01:42:40;101565.66;;;6.99;100.00
69667;BME280;66534;52.370;4.832;2023-01-30T01:43:17;101581.31;;;6.99;100.00
69667;BME280;66534;52.370;4.832;2023-01-30T01:44:54;101576.91;;;7.01;100.00
69667;BME280;66534;52.370;4.832;2023-01-30T01:45:47;101562.13;;;7.02;100.00
69667;BME280;66534;52.370;4.832;2023-01-30T01:46:21;101563.97;;;6.96;100.00
69667;BME280;66534;52.370;4.832;2023-01-30T01:46:55;101558.75;;;6.96;100.00
69667;BME280;66534;52.370;4.832;2023-01-30T01:47:29;101558.75;;;6.96;100.00
69667;BME280;66534;52.370;4.832;2023-01-30T01:48:03;101551.84;;;6.94;100.00
69667;BME280;66534;52.370;4.832;2023-01-30T01:48:41;101548.34;;;6.93;100.00
69667;BME280;66534;52.370;4.832;2023-01-30T01:49:34;101553.66;;;6.89;100.00
69667;BME280;66534;52.370;4.832;2023-01-30T01:50:09;101551.94;;;6.88;100.00
69667;BME280;66534;52.370;4.832;2023-01-30T01:50:46;101553.56;;;6.95;100.00
69667;BME280;66534;52.370;4.832;2023-01-30T01:51:23;101564.94;;;6.91;100.00
69667;BME280;66534;52.370;4.832;2023-01-30T01:52:03;101558.03;;;6.88;100.00
69667;BME280;66534;52.370;4.832;2023-01-30T01:52:38;101555.41;;;6.88;100.00
69667;BME280;66534;52.370;4.832;2023-01-30T01:53:10;101553.75;;;6.86;100.00
69667;BME280;66534;52.370;4.832;2023-01-30T01:53:43;101551.94;;;6.88;100.00
69667;BME280;66534;52.370;4.832;2023-01-30T01:54:22;101558.06;;;6.87;100.00
69667;BME280;66534;52.370;4.832;2023-01-30T01:55:11;101552.00;;;6.86;100.00
69667;BME280;66534;52.370;4.832;2023-01-30T01:55:43;101557.16;;;6.88;100.00
69667;BME280;66534;52.370;4.832;2023-01-30T01:56:18;101548.53;;;6.86;100.00
69667;BME280;66534;52.370;4.832;2023-01-30T01:56:50;101550.22;;;6.87;100.00
69667;BME280;66534;52.370;4.832;2023-01-30T01:57:22;101545.03;;;6.87;100.00
69667;BME280;66534;52.370;4.832;2023-01-30T01:58:01;101547.63;;;6.85;100.00
69667;BME280;66534;52.370;4.832;2023-01-30T01:58:39;101558.03;;;6.88;100.00
69667;BME280;66534;52.370;4.832;2023-01-30T01:59:22;101561.47;;;6.90;100.00
69667;BME280;66534;52.370;4.832;2023-01-30T01:59:59;101556.25;;;6.90;100.00
69667;BME280;66534;52.370;4.832;2023-01-30T02:00:40;101554.59;;;6.85;100.00
69667;BME280;66534;52.370;4.832;2023-01-30T02:01:11;101551.13;;;6.84;100.00
69667;BME280;66534;52.370;4.832;2023-01-30T02:01:41;101548.53;;;6.84;100.00
69667;BME280;66534;52.370;4.832;2023-01-30T02:02:12;101552.00;;;6.86;100.00
69667;BME280;66534;52.370;4.832;2023-01-30T02:02:48;101547.63;;;6.87;100.00
69667;BME280;66534;52.370;4.832;2023-01-30T02:03:23;101555.47;;;6.85;100.00
69667;BME280;66534;52.370;4.832;2023-01-30T02:03:56;101546.78;;;6.86;100.00
69667;BME280;66534;52.370;4.832;2023-01-30T02:04:32;101558.06;;;6.85;100.00
69667;BME280;66534;52.370;4.832;2023-01-30T02:05:26;101561.59;;;6.83;100.00
69667;BME280;66534;52.370;4.832;2023-01-30T02:06:01;101563.31;;;6.84;100.00
69667;BME280;66534;52.370;4.832;2023-01-30T02:06:33;101558.03;;;6.88;100.00
69667;BME280;66534;52.370;4.832;2023-01-30T02:07:05;101552.00;;;6.85;100.00
69667;BME280;66534;52.370;4.832;2023-01-30T02:07:44;101553.66;;;6.89;100.00
69667;BME280;66534;52.370;4.832;2023-01-30T02:08:33;101543.22;;;6.90;100.00
69667;BME280;66534;52.370;4.832;2023-01-30T02:09:09;101547.50;;;6.94;100.00
69667;BME280;66534;52.370;4.832;2023-01-30T02:09:40;101546.63;;;6.94;100.00
69667;BME280;66534;52.370;4.832;2023-01-30T02:10:21;101553.56;;;6.93;100.00
69667;BME280;66534;52.370;4.832;2023-01-30T02:11:04;101541.41;;;6.94;100.00
69667;BME280;66534;52.370;4.832;2023-01-30T02:12:16;101535.22;;;6.98;100.00
69667;BME280;66534;52.370;4.832;2023-01-30T02:12:47;101536.22;;;6.94;100.00
69667;BME280;66534;52.370;4.832;2023-01-30T02:13:19;101531.91;;;6.91;100.00
69667;BME280;66534;52.370;4.832;2023-01-30T02:13:50;101543.19;;;6.92;100.00
69667;BME280;66534;52.370;4.832;2023-01-30T02:14:20;101534.47;;;6.94;100.00
69667;BME280;66534;52.370;4.832;2023-01-30T02:14:52;101547.47;;;6.96;100.00
69667;BME280;66534;52.370;4.832;2023-01-30T02:15:23;101537.84;;;6.99;100.00
69667;BME280;66534;52.370;4.832;2023-01-30T02:15:55;101536.94;;;7.01;100.00
69667;BME280;66534;52.370;4.832;2023-01-30T02:16:27;101529.19;;;6.96;100.00
69667;BME280;66534;52.370;4.832;2023-01-30T02:16:58;101534.38;;;6.99;100.00
69667;BME280;66534;52.370;4.832;2023-01-30T02:17:28;101543.09;;;6.96;100.00
69667;BME280;66534;52.370;4.832;2023-01-30T02:17:58;101532.69;;;6.95;100.00
69667;BME280;66534;52.370;4.832;2023-01-30T02:18:29;101535.22;;;6.99;100.00
69667;BME280;66534;52.370;4.832;2023-01-30T02:19:05;101539.63;;;6.96;100.00
69667;BME280;66534;52.370;4.832;2023-01-30T02:20:33;101537.84;;;6.98;100.00
69667;BME280;66534;52.370;4.832;2023-01-30T02:25:01;101546.47;;;7.03;100.00
69667;BME280;66534;52.370;4.832;2023-01-30T02:25:18;101531.66;;;7.04;100.00
69667;BME280;66534;52.370;4.832;2023-01-30T02:34:42;101540.31;;;7.07;100.00
69667;BME280;66534;52.370;4.832;2023-01-30T02:37:45;101530.69;;;7.09;100.00
69667;BME280;66534;52.370;4.832;2023-01-30T02:40:09;101547.16;;;7.13;100.00
69667;BME280;66534;52.370;4.832;2023-01-30T02:42:31;101539.44;;;7.07;100.00
69667;BME280;66534;52.370;4.832;2023-01-30T02:43:12;101544.56;;;7.11;100.00
69667;BME280;66534;52.370;4.832;2023-01-30T02:44:03;101548.00;;;7.13;100.00
69667;BME280;66534;52.370;4.832;2023-01-30T02:45:15;101554.06;;;7.14;100.00
69667;BME280;66534;52.370;4.832;2023-01-30T02:46:07;101561.84;;;7.17;100.00
69667;BME280;66534;52.370;4.832;2023-01-30T02:46:52;101551.41;;;7.17;100.00
69667;BME280;66534;52.370;4.832;2023-01-30T02:47:28;101557.53;;;7.14;100.00
69667;BME280;66534;52.370;4.832;2023-01-30T02:48:05;101546.28;;;7.12;100.00
69667;BME280;66534;52.370;4.832;2023-01-30T02:48:49;101553.06;;;7.21;100.00
69667;BME280;66534;52.370;4.832;2023-01-30T02:49:59;101553.97;;;7.20;100.00
69667;BME280;66534;52.370;4.832;2023-01-30T02:50:38;101549.59;;;7.20;100.00
69667;BME280;66534;52.370;4.832;2023-01-30T02:51:18;101546.16;;;7.20;100.00
69667;BME280;66534;52.370;4.832;2023-01-30T02:51:50;101543.53;;;7.20;100.00
69667;BME280;66534;52.370;4.832;2023-01-30T02:52:21;101560.00;;;7.22;100.00
69667;BME280;66534;52.370;4.832;2023-01-30T02:52:52;101548.72;;;7.21;100.00
69667;BME280;66534;52.370;4.832;2023-01-30T02:53:23;101553.94;;;7.21;100.00
69667;BME280;66534;52.370;4.832;2023-01-30T02:53:54;101531.25;;;7.25;100.00
69667;BME280;66534;52.370;4.832;2023-01-30T02:54:25;101544.34;;;7.22;100.00
69667;BME280;66534;52.370;4.832;2023-01-30T02:54:55;101536.53;;;7.22;100.00
69667;BME280;66534;52.370;4.832;2023-01-30T02:55:26;101532.19;;;7.21;100.00
69667;BME280;66534;52.370;4.832;2023-01-30T02:55:58;101543.50;;;7.21;100.00
69667;BME280;66534;52.370;4.832;2023-01-30T02:56:39;101532.16;;;7.24;100.00
69667;BME280;66534;52.370;4.832;2023-01-30T02:57:22;101540.78;;;7.26;100.00
69667;BME280;66534;52.370;4.832;2023-01-30T02:57:54;101528.69;;;7.23;100.00
69667;BME280;66534;52.370;4.832;2023-01-30T02:58:25;101545.16;;;7.26;100.00
69667;BME280;66534;52.370;4.832;2023-01-30T02:59:01;101537.31;;;7.26;100.00
69667;BME280;66534;52.370;4.832;2023-01-30T02:59:38;101536.44;;;7.27;100.00
69667;BME280;66534;52.370;4.832;2023-01-30T03:00:14;101543.44;;;7.23;100.00
69667;BME280;66534;52.370;4.832;2023-01-30T03:05:14;101535.63;;;7.24;100.00
69667;BME280;66534;52.370;4.832;2023-01-30T03:06:21;101524.25;;;7.27;100.00
69667;BME280;66534;52.370;4.832;2023-01-30T03:07:36;101525.13;;;7.26;100.00
69667;BME280;66534;52.370;4.832;2023-01-30T03:08:57;101519.91;;;7.28;100.00
69667;BME280;66534;52.370;4.832;2023-01-30T03:10:48;101519.81;;;7.31;100.00
69667;BME280;66534;52.370;4.832;2023-01-30T03:14:15;101515.41;;;7.36;100.00
69667;BME280;66534;52.370;4.832;2023-01-30T03:15:03;101511.88;;;7.37;100.00
69667;BME280;66534;52.370;4.832;2023-01-30T03:15:50;101512.75;;;7.37;100.00
69667;BME280;66534;52.370;4.832;2023-01-30T03:16:30;101517.97;;;7.37;100.00
69667;BME280;66534;52.370;4.832;2023-01-30T03:17:04;101528.44;;;7.34;100.00
69667;BME280;66534;52.370;4.832;2023-01-30T03:17:36;101505.81;;;7.36;100.00
69667;BME280;66534;52.370;4.832;2023-01-30T03:18:11;101508.41;;;7.36;100.00
69667;BME280;66534;52.370;4.832;2023-01-30T03:18:41;101511.84;;;7.38;100.00
69667;BME280;66534;52.370;4.832;2023-01-30T03:19:13;101507.38;;;7.43;100.00
69667;BME280;66534;52.370;4.832;2023-01-30T03:19:44;101518.72;;;7.42;100.00
69667;BME280;66534;52.370;4.832;2023-01-30T03:20:15;101524.84;;;7.41;100.00
69667;BME280;66534;52.370;4.832;2023-01-30T03:20:49;101517.88;;;7.42;100.00
69667;BME280;66534;52.370;4.832;2023-01-30T03:21:20;101518.72;;;7.42;100.00
69667;BME280;66534;52.370;4.832;2023-01-30T03:21:50;101516.09;;;7.42;100.00
69667;BME280;66534;52.370;4.832;2023-01-30T03:22:21;101506.53;;;7.43;100.00
69667;BME280;66534;52.370;4.832;2023-01-30T03:22:52;101517.81;;;7.43;100.00
69667;BME280;66534;52.370;4.832;2023-01-30T03:23:23;101512.59;;;7.43;100.00
69667;BME280;66534;52.370;4.832;2023-01-30T03:23:53;101518.69;;;7.44;100.00
69667;BME280;66534;52.370;4.832;2023-01-30T03:24:24;101520.44;;;7.43;100.00
69667;BME280;66534;52.370;4.832;2023-01-30T03:24:54;101516.16;;;7.41;100.00
69667;BME280;66534;52.370;4.832;2023-01-30T03:25:25;101523.91;;;7.44;100.00
69667;BME280;66534;52.370;4.832;2023-01-30T03:25:56;101526.59;;;7.39;100.00